sensor_id;sensor_type;location;lat;lon;timestamp;temperature;humidity
10492;DHT22;5293;51.464;-2.566;2022-09-09T00:02:22;16.50;99.90
10492;DHT22;5293;51.464;-2.566;2022-09-09T00:04:59;16.50;99.90
10492;DHT22;5293;51.464;-2.566;2022-09-09T00:15:57;16.50;99.90
10492;DHT22;5293;51.464;-2.566;2022-09-09T00:21:12;16.70;99.90
10492;DHT22;5293;51.464;-2.566;2022-09-09T00:23:47;16.70;99.90
10492;DHT22;5293;51.464;-2.566;2022-09-09T00:26:44;16.70;99.90
10492;DHT22;5293;51.464;-2.566;2022-09-09T00:31:54;16.70;99.90
10492;DHT22;5293;51.464;-2.566;2022-09-09T00:34:24;16.60;99.90
10492;DHT22;5293;51.464;-2.566;2022-09-09T00:36:53;16.70;99.90
10492;DHT22;5293;51.464;-2.566;2022-09-09T00:39:31;16.60;99.90
10492;DHT22;5293;51.464;-2.566;2022-09-09T00:44:37;16.60;99.90
10492;DHT22;5293;51.464;-2.566;2022-09-09T00:58:30;16.50;99.90
10492;DHT22;5293;51.464;-2.566;2022-09-09T01:01:08;16.50;99.90
10492;DHT22;5293;51.464;-2.566;2022-09-09T01:03:49;16.50;99.90
10492;DHT22;5293;51.464;-2.566;2022-09-09T01:06:36;16.50;99.90
10492;DHT22;5293;51.464;-2.566;2022-09-09T01:09:16;16.40;99.90
10492;DHT22;5293;51.464;-2.566;2022-09-09T01:17:13;16.30;99.90
10492;DHT22;5293;51.464;-2.566;2022-09-09T01:22:33;16.30;99.90
10492;DHT22;5293;51.464;-2.566;2022-09-09T01:25:29;16.10;99.90
10492;DHT22;5293;51.464;-2.566;2022-09-09T01:28:00;16.30;99.90
10492;DHT22;5293;51.464;-2.566;2022-09-09T01:30:26;16.20;99.90
10492;DHT22;5293;51.464;-2.566;2022-09-09T01:32:57;16.20;99.90
10492;DHT22;5293;51.464;-2.566;2022-09-09T01:38:04;16.20;99.90
10492;DHT22;5293;51.464;-2.566;2022-09-09T01:40:30;16.20;99.90
10492;DHT22;5293;51.464;-2.566;2022-09-09T01:42:56;16.20;99.90
10492;DHT22;5293;51.464;-2.566;2022-09-09T01:45:22;16.20;99.90
10492;DHT22;5293;51.464;-2.566;2022-09-09T01:47:50;16.10;99.90
10492;DHT22;5293;51.464;-2.566;2022-09-09T01:50:17;16.10;99.90
10492;DHT22;5293;51.464;-2.566;2022-09-09T01:52:46;16.10;99.90
10492;DHT22;5293;51.464;-2.566;2022-09-09T01:55:13;16.00;99.90
10492;DHT22;5293;51.464;-2.566;2022-09-09T02:00:10;16.00;99.90
10492;DHT22;5293;51.464;-2.566;2022-09-09T02:02:56;16.00;99.90
10492;DHT22;5293;51.464;-2.566;2022-09-09T02:08:03;16.10;99.90
10492;DHT22;5293;51.464;-2.566;2022-09-09T02:10:38;16.10;99.90
10492;DHT22;5293;51.464;-2.566;2022-09-09T02:13:14;16.00;99.90
10492;DHT22;5293;51.464;-2.566;2022-09-09T02:15:55;16.10;99.90
10492;DHT22;5293;51.464;-2.566;2022-09-09T02:18:34;16.10;99.90
10492;DHT22;5293;51.464;-2.566;2022-09-09T02:21:00;16.10;99.90
10492;DHT22;5293;51.464;-2.566;2022-09-09T02:23:28;16.20;99.90
10492;DHT22;5293;51.464;-2.566;2022-09-09T02:25:56;16.10;99.90
10492;DHT22;5293;51.464;-2.566;2022-09-09T02:28:24;16.10;99.90
10492;DHT22;5293;51.464;-2.566;2022-09-09T02:30:51;16.10;99.90
10492;DHT22;5293;51.464;-2.566;2022-09-09T02:33:23;16.20;99.90
10492;DHT22;5293;51.464;-2.566;2022-09-09T02:35:51;16.10;99.90
10492;DHT22;5293;51.464;-2.566;2022-09-09T02:38:19;16.10;99.90
10492;DHT22;5293;51.464;-2.566;2022-09-09T02:40:47;16.10;99.90
10492;DHT22;5293;51.464;-2.566;2022-09-09T02:43:14;16.10;99.90
10492;DHT22;5293;51.464;-2.566;2022-09-09T02:45:48;16.10;99.90
10492;DHT22;5293;51.464;-2.566;2022-09-09T02:48:26;16.20;99.90
10492;DHT22;5293;51.464;-2.566;2022-09-09T02:53:59;16.20;99.90
10492;DHT22;5293;51.464;-2.566;2022-09-09T02:56:30;16.10;99.90
10492;DHT22;5293;51.464;-2.566;2022-09-09T02:58:59;16.20;99.90
10492;DHT22;5293;51.464;-2.566;2022-09-09T03:01:25;16.20;99.90
10492;DHT22;5293;51.464;-2.566;2022-09-09T03:03:50;16.10;99.90
10492;DHT22;5293;51.464;-2.566;2022-09-09T03:06:16;16.10;99.90
10492;DHT22;5293;51.464;-2.566;2022-09-09T03:08:42;16.10;99.90
10492;DHT22;5293;51.464;-2.566;2022-09-09T03:11:12;16.10;99.90
10492;DHT22;5293;51.464;-2.566;2022-09-09T03:13:39;16.20;99.90
10492;DHT22;5293;51.464;-2.566;2022-09-09T03:16:05;16.10;99.90
10492;DHT22;5293;51.464;-2.566;2022-09-09T03:18:31;16.20;99.90
10492;DHT22;5293;51.464;-2.566;2022-09-09T03:20:57;16.20;99.90
10492;DHT22;5293;51.464;-2.566;2022-09-09T03:23:24;16.20;99.90
10492;DHT22;5293;51.464;-2.566;2022-09-09T03:25:50;16.30;99.90
10492;DHT22;5293;51.464;-2.566;2022-09-09T03:28:17;16.20;99.90
10492;DHT22;5293;51.464;-2.566;2022-09-09T03:30:43;16.20;99.90
10492;DHT22;5293;51.464;-2.566;2022-09-09T03:33:09;16.20;99.90
10492;DHT22;5293;51.464;-2.566;2022-09-09T03:35:34;16.20;99.90
10492;DHT22;5293;51.464;-2.566;2022-09-09T03:38:00;16.20;99.90
10492;DHT22;5293;51.464;-2.566;2022-09-09T03:40:26;16.20;99.90
10492;DHT22;5293;51.464;-2.566;2022-09-09T03:42:52;16.10;99.90
10492;DHT22;5293;51.464;-2.566;2022-09-09T03:45:18;16.10;99.90
10492;DHT22;5293;51.464;-2.566;2022-09-09T03:47:43;16.10;99.90
10492;DHT22;5293;51.464;-2.566;2022-09-09T03:50:09;16.10;99.90
10492;DHT22;5293;51.464;-2.566;2022-09-09T03:52:39;16.00;99.90
10492;DHT22;5293;51.464;-2.566;2022-09-09T03:55:07;16.10;99.90
10492;DHT22;5293;51.464;-2.566;2022-09-09T03:57:33;16.10;99.90
10492;DHT22;5293;51.464;-2.566;2022-09-09T04:00:05;16.10;99.90
10492;DHT22;5293;51.464;-2.566;2022-09-09T04:02:31;16.20;99.90
10492;DHT22;5293;51.464;-2.566;2022-09-09T04:04:56;16.20;99.90
10492;DHT22;5293;51.464;-2.566;2022-09-09T04:07:22;16.20;99.90
10492;DHT22;5293;51.464;-2.566;2022-09-09T04:09:48;16.20;99.90
10492;DHT22;5293;51.464;-2.566;2022-09-09T04:12:13;16.10;99.90
10492;DHT22;5293;51.464;-2.566;2022-09-09T04:14:39;16.20;99.90
10492;DHT22;5293;51.464;-2.566;2022-09-09T04:17:05;16.20;99.90
10492;DHT22;5293;51.464;-2.566;2022-09-09T04:19:32;16.20;99.90
10492;DHT22;5293;51.464;-2.566;2022-09-09T04:21:58;16.10;99.90
10492;DHT22;5293;51.464;-2.566;2022-09-09T04:24:24;16.20;99.90
10492;DHT22;5293;51.464;-2.566;2022-09-09T04:26:50;16.20;99.90
10492;DHT22;5293;51.464;-2.566;2022-09-09T04:29:15;16.20;99.90
10492;DHT22;5293;51.464;-2.566;2022-09-09T04:31:42;16.20;99.90
10492;DHT22;5293;51.464;-2.566;2022-09-09T04:34:09;16.20;99.90
10492;DHT22;5293;51.464;-2.566;2022-09-09T04:36:35;16.20;99.90
10492;DHT22;5293;51.464;-2.566;2022-09-09T04:39:02;16.20;99.90
10492;DHT22;5293;51.464;-2.566;2022-09-09T04:41:27;16.20;99.90
10492;DHT22;5293;51.464;-2.566;2022-09-09T04:43:53;16.20;99.90
10492;DHT22;5293;51.464;-2.566;2022-09-09T04:46:20;16.20;99.90
10492;DHT22;5293;51.464;-2.566;2022-09-09T04:48:49;16.20;99.90
10492;DHT22;5293;51.464;-2.566;2022-09-09T04:51:15;16.30;99.90
10492;DHT22;5293;51.464;-2.566;2022-09-09T04:53:40;16.20;99.90
10492;DHT22;5293;51.464;-2.566;2022-09-09T04:56:11;16.20;99.90
10492;DHT22;5293;51.464;-2.566;2022-09-09T04:58:38;16.20;99.90
10492;DHT22;5293;51.464;-2.566;2022-09-09T05:01:10;16.20;99.90
10492;DHT22;5293;51.464;-2.566;2022-09-09T05:03:36;16.20;99.90
10492;DHT22;5293;51.464;-2.566;2022-09-09T05:06:08;16.20;99.90
10492;DHT22;5293;51.464;-2.566;2022-09-09T05:08:38;16.20;99.90
10492;DHT22;5293;51.464;-2.566;2022-09-09T05:11:18;16.20;99.90
10492;DHT22;5293;51.464;-2.566;2022-09-09T05:13:44;16.20;99.90
10492;DHT22;5293;51.464;-2.566;2022-09-09T05:16:10;16.20;99.90
10492;DHT22;5293;51.464;-2.566;2022-09-09T05:18:37;16.10;99.90
10492;DHT22;5293;51.464;-2.566;2022-09-09T05:21:03;16.10;99.90
10492;DHT22;5293;51.464;-2.566;2022-09-09T05:23:28;16.10;99.90
10492;DHT22;5293;51.464;-2.566;2022-09-09T05:25:58;16.10;99.90
10492;DHT22;5293;51.464;-2.566;2022-09-09T05:28:27;16.10;99.90
10492;DHT22;5293;51.464;-2.566;2022-09-09T05:31:01;16.10;99.90
10492;DHT22;5293;51.464;-2.566;2022-09-09T05:33:29;16.10;99.90
10492;DHT22;5293;51.464;-2.566;2022-09-09T05:36:04;16.10;99.90
10492;DHT22;5293;51.464;-2.566;2022-09-09T05:38:31;16.20;99.90
10492;DHT22;5293;51.464;-2.566;2022-09-09T05:40:59;16.10;99.90
10492;DHT22;5293;51.464;-2.566;2022-09-09T05:43:25;16.10;99.90
10492;DHT22;5293;51.464;-2.566;2022-09-09T05:46:00;16.10;99.90
10492;DHT22;5293;51.464;-2.566;2022-09-09T05:48:31;16.10;99.90
10492;DHT22;5293;51.464;-2.566;2022-09-09T05:50:58;16.00;99.90
10492;DHT22;5293;51.464;-2.566;2022-09-09T05:53:25;16.00;99.90
10492;DHT22;5293;51.464;-2.566;2022-09-09T05:55:57;16.10;99.90
10492;DHT22;5293;51.464;-2.566;2022-09-09T05:58:23;16.10;99.90
10492;DHT22;5293;51.464;-2.566;2022-09-09T06:00:49;16.10;99.90
10492;DHT22;5293;51.464;-2.566;2022-09-09T06:03:15;16.10;99.90
10492;DHT22;5293;51.464;-2.566;2022-09-09T06:05:42;16.20;99.90
10492;DHT22;5293;51.464;-2.566;2022-09-09T06:08:08;16.10;99.90
10492;DHT22;5293;51.464;-2.566;2022-09-09T06:10:33;16.20;99.90
10492;DHT22;5293;51.464;-2.566;2022-09-09T06:12:59;16.20;99.90
10492;DHT22;5293;51.464;-2.566;2022-09-09T06:15:25;16.20;99.90
10492;DHT22;5293;51.464;-2.566;2022-09-09T06:17:55;16.20;99.90
10492;DHT22;5293;51.464;-2.566;2022-09-09T06:20:21;16.20;99.90
10492;DHT22;5293;51.464;-2.566;2022-09-09T06:22:47;16.20;99.90
10492;DHT22;5293;51.464;-2.566;2022-09-09T06:25:14;16.30;99.90
10492;DHT22;5293;51.464;-2.566;2022-09-09T06:27:40;16.30;99.90
10492;DHT22;5293;51.464;-2.566;2022-09-09T06:30:07;16.20;99.90
10492;DHT22;5293;51.464;-2.566;2022-09-09T06:32:33;16.20;99.90
10492;DHT22;5293;51.464;-2.566;2022-09-09T06:35:00;16.30;99.90
10492;DHT22;5293;51.464;-2.566;2022-09-09T06:37:26;16.20;99.90
10492;DHT22;5293;51.464;-2.566;2022-09-09T06:39:52;16.30;99.90
10492;DHT22;5293;51.464;-2.566;2022-09-09T06:42:20;16.40;99.90
10492;DHT22;5293;51.464;-2.566;2022-09-09T06:44:45;16.40;99.90
10492;DHT22;5293;51.464;-2.566;2022-09-09T06:47:11;16.40;99.90
10492;DHT22;5293;51.464;-2.566;2022-09-09T06:49:37;16.40;99.90
10492;DHT22;5293;51.464;-2.566;2022-09-09T06:52:02;16.50;99.90
10492;DHT22;5293;51.464;-2.566;2022-09-09T06:54:28;16.50;99.90
10492;DHT22;5293;51.464;-2.566;2022-09-09T06:56:54;16.50;99.90
10492;DHT22;5293;51.464;-2.566;2022-09-09T06:59:19;16.60;99.90
10492;DHT22;5293;51.464;-2.566;2022-09-09T07:01:45;16.50;99.90
10492;DHT22;5293;51.464;-2.566;2022-09-09T07:04:12;16.50;99.90
10492;DHT22;5293;51.464;-2.566;2022-09-09T07:06:43;16.50;99.90
10492;DHT22;5293;51.464;-2.566;2022-09-09T07:09:12;16.50;99.90
10492;DHT22;5293;51.464;-2.566;2022-09-09T07:11:48;16.60;99.90
10492;DHT22;5293;51.464;-2.566;2022-09-09T07:14:14;16.70;99.90
10492;DHT22;5293;51.464;-2.566;2022-09-09T07:16:44;16.60;99.90
10492;DHT22;5293;51.464;-2.566;2022-09-09T07:19:11;16.60;99.90
10492;DHT22;5293;51.464;-2.566;2022-09-09T07:21:38;16.60;99.90
10492;DHT22;5293;51.464;-2.566;2022-09-09T07:24:06;16.70;99.90
10492;DHT22;5293;51.464;-2.566;2022-09-09T07:26:33;16.90;99.90
10492;DHT22;5293;51.464;-2.566;2022-09-09T07:29:00;17.00;99.90
10492;DHT22;5293;51.464;-2.566;2022-09-09T07:31:26;17.10;99.90
10492;DHT22;5293;51.464;-2.566;2022-09-09T07:33:52;17.20;99.90
10492;DHT22;5293;51.464;-2.566;2022-09-09T07:36:19;17.30;99.90
10492;DHT22;5293;51.464;-2.566;2022-09-09T07:38:52;17.40;99.90
10492;DHT22;5293;51.464;-2.566;2022-09-09T07:41:21;17.40;99.90
10492;DHT22;5293;51.464;-2.566;2022-09-09T07:43:48;17.30;99.90
10492;DHT22;5293;51.464;-2.566;2022-09-09T07:46:16;17.30;99.90
10492;DHT22;5293;51.464;-2.566;2022-09-09T07:48:47;17.20;99.90
10492;DHT22;5293;51.464;-2.566;2022-09-09T07:51:18;17.30;99.90
10492;DHT22;5293;51.464;-2.566;2022-09-09T07:53:45;17.30;99.90
10492;DHT22;5293;51.464;-2.566;2022-09-09T07:56:15;17.30;99.90
10492;DHT22;5293;51.464;-2.566;2022-09-09T07:58:47;17.40;99.90
10492;DHT22;5293;51.464;-2.566;2022-09-09T08:01:16;17.50;99.90
10492;DHT22;5293;51.464;-2.566;2022-09-09T08:03:44;17.50;99.90
10492;DHT22;5293;51.464;-2.566;2022-09-09T08:06:10;17.70;99.90
10492;DHT22;5293;51.464;-2.566;2022-09-09T08:08:38;17.70;99.90
10492;DHT22;5293;51.464;-2.566;2022-09-09T08:11:14;17.80;99.90
10492;DHT22;5293;51.464;-2.566;2022-09-09T08:13:42;17.80;99.90
10492;DHT22;5293;51.464;-2.566;2022-09-09T08:16:13;17.90;99.90
10492;DHT22;5293;51.464;-2.566;2022-09-09T08:18:39;18.00;99.90
10492;DHT22;5293;51.464;-2.566;2022-09-09T08:23:40;18.20;99.90
10492;DHT22;5293;51.464;-2.566;2022-09-09T08:26:15;18.20;99.90
10492;DHT22;5293;51.464;-2.566;2022-09-09T08:28:42;18.30;99.90
10492;DHT22;5293;51.464;-2.566;2022-09-09T08:31:12;18.20;99.90
10492;DHT22;5293;51.464;-2.566;2022-09-09T08:33:39;18.20;99.90
10492;DHT22;5293;51.464;-2.566;2022-09-09T08:36:06;18.10;99.90
10492;DHT22;5293;51.464;-2.566;2022-09-09T08:38:32;17.90;99.90
10492;DHT22;5293;51.464;-2.566;2022-09-09T08:41:41;17.80;99.90
10492;DHT22;5293;51.464;-2.566;2022-09-09T08:44:06;17.80;99.90
10492;DHT22;5293;51.464;-2.566;2022-09-09T08:47:31;17.70;99.90
10492;DHT22;5293;51.464;-2.566;2022-09-09T08:50:00;17.60;99.90
10492;DHT22;5293;51.464;-2.566;2022-09-09T08:58:31;17.60;99.90
10492;DHT22;5293;51.464;-2.566;2022-09-09T09:12:43;17.90;99.90
10492;DHT22;5293;51.464;-2.566;2022-09-09T09:14:59;18.00;99.90
10492;DHT22;5293;51.464;-2.566;2022-09-09T09:17:27;18.00;99.90
10492;DHT22;5293;51.464;-2.566;2022-09-09T09:19:57;17.90;99.90
10492;DHT22;5293;51.464;-2.566;2022-09-09T09:27:35;17.80;99.90
10492;DHT22;5293;51.464;-2.566;2022-09-09T09:30:19;17.70;99.90
10492;DHT22;5293;51.464;-2.566;2022-09-09T09:32:58;17.70;99.90
10492;DHT22;5293;51.464;-2.566;2022-09-09T09:35:25;17.60;99.90
10492;DHT22;5293;51.464;-2.566;2022-09-09T09:37:50;17.60;99.90
10492;DHT22;5293;51.464;-2.566;2022-09-09T09:40:18;17.60;99.90
10492;DHT22;5293;51.464;-2.566;2022-09-09T09:43:00;17.70;99.90
10492;DHT22;5293;51.464;-2.566;2022-09-09T09:45:31;17.70;99.90
10492;DHT22;5293;51.464;-2.566;2022-09-09T09:48:11;17.70;99.90
10492;DHT22;5293;51.464;-2.566;2022-09-09T09:53:25;17.60;99.90
10492;DHT22;5293;51.464;-2.566;2022-09-09T09:56:03;17.60;99.90
10492;DHT22;5293;51.464;-2.566;2022-09-09T09:58:47;17.60;99.90
10492;DHT22;5293;51.464;-2.566;2022-09-09T10:01:25;17.50;99.90
10492;DHT22;5293;51.464;-2.566;2022-09-09T10:04:20;17.60;99.90
10492;DHT22;5293;51.464;-2.566;2022-09-09T10:06:49;17.60;99.90
10492;DHT22;5293;51.464;-2.566;2022-09-09T10:09:32;17.60;99.90
10492;DHT22;5293;51.464;-2.566;2022-09-09T10:12:20;17.60;99.90
10492;DHT22;5293;51.464;-2.566;2022-09-09T10:17:32;17.70;99.90
10492;DHT22;5293;51.464;-2.566;2022-09-09T10:22:33;17.80;99.90
10492;DHT22;5293;51.464;-2.566;2022-09-09T10:28:03;17.90;99.90
10492;DHT22;5293;51.464;-2.566;2022-09-09T10:36:05;17.90;99.90
10492;DHT22;5293;51.464;-2.566;2022-09-09T10:39:03;17.90;99.90
10492;DHT22;5293;51.464;-2.566;2022-09-09T10:55:50;17.90;99.90
10492;DHT22;5293;51.464;-2.566;2022-09-09T10:58:27;18.10;99.90
10492;DHT22;5293;51.464;-2.566;2022-09-09T11:01:01;18.30;99.90
10492;DHT22;5293;51.464;-2.566;2022-09-09T11:03:31;18.40;99.90
10492;DHT22;5293;51.464;-2.566;2022-09-09T11:06:05;18.50;99.90
10492;DHT22;5293;51.464;-2.566;2022-09-09T11:08:34;18.70;99.90
10492;DHT22;5293;51.464;-2.566;2022-09-09T11:11:16;18.80;99.90
10492;DHT22;5293;51.464;-2.566;2022-09-09T11:13:52;18.90;99.90
10492;DHT22;5293;51.464;-2.566;2022-09-09T11:19:41;19.30;99.90
10492;DHT22;5293;51.464;-2.566;2022-09-09T11:25:13;19.30;99.90
10492;DHT22;5293;51.464;-2.566;2022-09-09T11:39:02;19.50;99.90
10492;DHT22;5293;51.464;-2.566;2022-09-09T11:41:35;19.50;99.90
10492;DHT22;5293;51.464;-2.566;2022-09-09T11:44:10;19.50;99.90
10492;DHT22;5293;51.464;-2.566;2022-09-09T11:46:38;19.60;99.90
10492;DHT22;5293;51.464;-2.566;2022-09-09T11:49:06;19.70;99.90
10492;DHT22;5293;51.464;-2.566;2022-09-09T11:51:33;19.80;99.90
10492;DHT22;5293;51.464;-2.566;2022-09-09T11:54:04;19.80;99.90
10492;DHT22;5293;51.464;-2.566;2022-09-09T11:56:48;19.80;99.90
10492;DHT22;5293;51.464;-2.566;2022-09-09T11:59:33;19.70;99.90
10492;DHT22;5293;51.464;-2.566;2022-09-09T12:02:12;19.60;99.90
10492;DHT22;5293;51.464;-2.566;2022-09-09T12:04:44;19.50;99.90
10492;DHT22;5293;51.464;-2.566;2022-09-09T12:07:23;19.50;99.90
10492;DHT22;5293;51.464;-2.566;2022-09-09T12:10:18;19.50;99.90
10492;DHT22;5293;51.464;-2.566;2022-09-09T12:12:44;19.50;99.90
10492;DHT22;5293;51.464;-2.566;2022-09-09T12:17:53;19.90;99.90
10492;DHT22;5293;51.464;-2.566;2022-09-09T12:31:21;20.10;99.90
10492;DHT22;5293;51.464;-2.566;2022-09-09T12:33:48;20.20;99.90
10492;DHT22;5293;51.464;-2.566;2022-09-09T12:36:19;20.10;99.90
10492;DHT22;5293;51.464;-2.566;2022-09-09T12:38:47;20.00;99.90
10492;DHT22;5293;51.464;-2.566;2022-09-09T12:41:24;20.00;99.90
10492;DHT22;5293;51.464;-2.566;2022-09-09T12:43:51;20.10;99.90
10492;DHT22;5293;51.464;-2.566;2022-09-09T12:46:33;20.20;99.90
10492;DHT22;5293;51.464;-2.566;2022-09-09T12:49:02;20.20;99.90
10492;DHT22;5293;51.464;-2.566;2022-09-09T12:51:30;19.90;99.90
10492;DHT22;5293;51.464;-2.566;2022-09-09T12:53:58;19.70;99.90
10492;DHT22;5293;51.464;-2.566;2022-09-09T12:56:30;19.50;99.90
10492;DHT22;5293;51.464;-2.566;2022-09-09T12:58:57;19.50;99.90
10492;DHT22;5293;51.464;-2.566;2022-09-09T13:01:32;19.60;99.90
10492;DHT22;5293;51.464;-2.566;2022-09-09T13:03:59;19.50;99.90
10492;DHT22;5293;51.464;-2.566;2022-09-09T13:06:26;19.50;99.90
10492;DHT22;5293;51.464;-2.566;2022-09-09T13:08:54;19.50;99.90
10492;DHT22;5293;51.464;-2.566;2022-09-09T13:11:35;19.40;99.90
10492;DHT22;5293;51.464;-2.566;2022-09-09T13:14:02;19.20;99.90
10492;DHT22;5293;51.464;-2.566;2022-09-09T13:16:32;19.10;99.90
10492;DHT22;5293;51.464;-2.566;2022-09-09T13:19:09;18.90;99.90
10492;DHT22;5293;51.464;-2.566;2022-09-09T13:21:37;18.90;99.90
10492;DHT22;5293;51.464;-2.566;2022-09-09T13:24:19;19.00;99.90
10492;DHT22;5293;51.464;-2.566;2022-09-09T13:26:59;19.10;99.90
10492;DHT22;5293;51.464;-2.566;2022-09-09T13:29:27;19.40;99.90
10492;DHT22;5293;51.464;-2.566;2022-09-09T13:31:54;19.50;99.90
10492;DHT22;5293;51.464;-2.566;2022-09-09T13:34:30;19.70;99.90
10492;DHT22;5293;51.464;-2.566;2022-09-09T13:37:04;19.70;99.90
10492;DHT22;5293;51.464;-2.566;2022-09-09T13:39:37;19.70;99.90
10492;DHT22;5293;51.464;-2.566;2022-09-09T13:42:03;19.70;99.90
10492;DHT22;5293;51.464;-2.566;2022-09-09T13:44:33;19.80;99.90
10492;DHT22;5293;51.464;-2.566;2022-09-09T13:47:50;19.80;99.90
10492;DHT22;5293;51.464;-2.566;2022-09-09T13:49:50;20.00;99.90
10492;DHT22;5293;51.464;-2.566;2022-09-09T13:52:18;20.10;99.90
10492;DHT22;5293;51.464;-2.566;2022-09-09T13:54:48;20.10;99.90
10492;DHT22;5293;51.464;-2.566;2022-09-09T13:59:44;20.20;99.90
10492;DHT22;5293;51.464;-2.566;2022-09-09T14:02:10;20.40;99.90
10492;DHT22;5293;51.464;-2.566;2022-09-09T14:04:36;20.50;99.90
10492;DHT22;5293;51.464;-2.566;2022-09-09T14:07:02;20.70;99.90
10492;DHT22;5293;51.464;-2.566;2022-09-09T14:09:28;20.80;99.90
10492;DHT22;5293;51.464;-2.566;2022-09-09T14:11:54;20.80;99.90
10492;DHT22;5293;51.464;-2.566;2022-09-09T14:14:23;20.70;99.90
10492;DHT22;5293;51.464;-2.566;2022-09-09T14:16:48;20.60;99.90
10492;DHT22;5293;51.464;-2.566;2022-09-09T14:19:14;20.60;99.90
10492;DHT22;5293;51.464;-2.566;2022-09-09T14:21:40;20.60;99.90
10492;DHT22;5293;51.464;-2.566;2022-09-09T14:24:05;20.60;99.90
10492;DHT22;5293;51.464;-2.566;2022-09-09T14:26:31;20.40;99.90
10492;DHT22;5293;51.464;-2.566;2022-09-09T14:28:57;20.50;99.90
10492;DHT22;5293;51.464;-2.566;2022-09-09T14:31:24;20.60;99.90
10492;DHT22;5293;51.464;-2.566;2022-09-09T14:33:50;20.50;99.90
10492;DHT22;5293;51.464;-2.566;2022-09-09T14:36:16;20.60;99.90
10492;DHT22;5293;51.464;-2.566;2022-09-09T14:38:42;20.60;99.90
10492;DHT22;5293;51.464;-2.566;2022-09-09T14:41:16;20.60;99.90
10492;DHT22;5293;51.464;-2.566;2022-09-09T14:43:45;20.60;99.90
10492;DHT22;5293;51.464;-2.566;2022-09-09T14:46:13;20.40;99.90
10492;DHT22;5293;51.464;-2.566;2022-09-09T14:48:39;20.40;99.90
10492;DHT22;5293;51.464;-2.566;2022-09-09T14:53:42;20.50;99.90
10492;DHT22;5293;51.464;-2.566;2022-09-09T14:56:12;20.50;99.90
10492;DHT22;5293;51.464;-2.566;2022-09-09T14:58:38;20.50;99.90
10492;DHT22;5293;51.464;-2.566;2022-09-09T15:01:05;20.50;99.90
10492;DHT22;5293;51.464;-2.566;2022-09-09T15:03:31;20.30;99.90
10492;DHT22;5293;51.464;-2.566;2022-09-09T15:05:57;20.00;99.90
10492;DHT22;5293;51.464;-2.566;2022-09-09T15:08:24;19.90;99.90
10492;DHT22;5293;51.464;-2.566;2022-09-09T15:10:59;19.80;99.90
10492;DHT22;5293;51.464;-2.566;2022-09-09T15:13:25;19.70;99.90
10492;DHT22;5293;51.464;-2.566;2022-09-09T15:15:50;19.80;99.90
10492;DHT22;5293;51.464;-2.566;2022-09-09T15:18:16;20.00;99.90
10492;DHT22;5293;51.464;-2.566;2022-09-09T15:20:45;20.00;99.90
10492;DHT22;5293;51.464;-2.566;2022-09-09T15:23:12;20.00;99.90
10492;DHT22;5293;51.464;-2.566;2022-09-09T15:25:38;20.00;99.90
10492;DHT22;5293;51.464;-2.566;2022-09-09T15:28:03;20.00;99.90
10492;DHT22;5293;51.464;-2.566;2022-09-09T15:30:29;20.10;99.90
10492;DHT22;5293;51.464;-2.566;2022-09-09T15:32:55;20.10;99.90
10492;DHT22;5293;51.464;-2.566;2022-09-09T15:35:20;20.10;99.90
10492;DHT22;5293;51.464;-2.566;2022-09-09T15:37:46;20.10;99.90
10492;DHT22;5293;51.464;-2.566;2022-09-09T15:40:11;20.10;99.90
10492;DHT22;5293;51.464;-2.566;2022-09-09T15:42:37;20.20;99.90
10492;DHT22;5293;51.464;-2.566;2022-09-09T15:45:04;20.10;99.90
10492;DHT22;5293;51.464;-2.566;2022-09-09T15:47:31;20.20;99.90
10492;DHT22;5293;51.464;-2.566;2022-09-09T15:49:58;20.20;99.90
10492;DHT22;5293;51.464;-2.566;2022-09-09T15:52:24;20.30;99.90
10492;DHT22;5293;51.464;-2.566;2022-09-09T15:54:49;20.30;99.90
10492;DHT22;5293;51.464;-2.566;2022-09-09T15:57:15;20.20;99.90
10492;DHT22;5293;51.464;-2.566;2022-09-09T15:59:41;20.20;99.90
10492;DHT22;5293;51.464;-2.566;2022-09-09T16:02:07;20.30;99.90
10492;DHT22;5293;51.464;-2.566;2022-09-09T16:04:32;20.30;99.90
10492;DHT22;5293;51.464;-2.566;2022-09-09T16:07:02;20.20;99.90
10492;DHT22;5293;51.464;-2.566;2022-09-09T16:09:28;20.10;99.90
10492;DHT22;5293;51.464;-2.566;2022-09-09T16:11:59;20.00;99.90
10492;DHT22;5293;51.464;-2.566;2022-09-09T16:14:31;19.90;99.90
10492;DHT22;5293;51.464;-2.566;2022-09-09T16:17:01;19.90;99.90
10492;DHT22;5293;51.464;-2.566;2022-09-09T16:19:27;19.90;99.90
10492;DHT22;5293;51.464;-2.566;2022-09-09T16:21:52;19.80;99.90
10492;DHT22;5293;51.464;-2.566;2022-09-09T16:24:19;19.80;99.90
10492;DHT22;5293;51.464;-2.566;2022-09-09T16:26:49;19.80;99.90
10492;DHT22;5293;51.464;-2.566;2022-09-09T16:29:16;19.70;99.90
10492;DHT22;5293;51.464;-2.566;2022-09-09T16:31:43;19.80;99.90
10492;DHT22;5293;51.464;-2.566;2022-09-09T16:34:10;19.90;99.90
10492;DHT22;5293;51.464;-2.566;2022-09-09T16:36:37;20.00;99.90
10492;DHT22;5293;51.464;-2.566;2022-09-09T16:39:07;20.10;99.90
10492;DHT22;5293;51.464;-2.566;2022-09-09T16:41:35;20.00;99.90
10492;DHT22;5293;51.464;-2.566;2022-09-09T16:44:03;20.00;99.90
10492;DHT22;5293;51.464;-2.566;2022-09-09T16:46:31;19.90;99.90
10492;DHT22;5293;51.464;-2.566;2022-09-09T16:48:58;20.10;99.90
10492;DHT22;5293;51.464;-2.566;2022-09-09T16:51:29;20.00;99.90
10492;DHT22;5293;51.464;-2.566;2022-09-09T16:53:58;20.00;99.90
10492;DHT22;5293;51.464;-2.566;2022-09-09T16:56:26;19.90;99.90
10492;DHT22;5293;51.464;-2.566;2022-09-09T16:58:56;19.90;99.90
10492;DHT22;5293;51.464;-2.566;2022-09-09T17:01:24;20.00;99.90
10492;DHT22;5293;51.464;-2.566;2022-09-09T17:03:57;20.00;99.90
10492;DHT22;5293;51.464;-2.566;2022-09-09T17:06:23;19.90;99.90
10492;DHT22;5293;51.464;-2.566;2022-09-09T17:08:54;19.80;99.90
10492;DHT22;5293;51.464;-2.566;2022-09-09T17:11:20;19.80;99.90
10492;DHT22;5293;51.464;-2.566;2022-09-09T17:13:47;19.80;99.90
10492;DHT22;5293;51.464;-2.566;2022-09-09T17:16:16;19.80;99.90
10492;DHT22;5293;51.464;-2.566;2022-09-09T17:18:42;19.80;99.90
10492;DHT22;5293;51.464;-2.566;2022-09-09T17:21:13;19.70;99.90
10492;DHT22;5293;51.464;-2.566;2022-09-09T17:23:40;19.60;99.90
10492;DHT22;5293;51.464;-2.566;2022-09-09T17:26:09;19.50;99.90
10492;DHT22;5293;51.464;-2.566;2022-09-09T17:28:37;19.50;99.90
10492;DHT22;5293;51.464;-2.566;2022-09-09T17:31:04;19.40;99.90
10492;DHT22;5293;51.464;-2.566;2022-09-09T17:33:32;19.20;99.90
10492;DHT22;5293;51.464;-2.566;2022-09-09T17:36:00;19.00;99.90
10492;DHT22;5293;51.464;-2.566;2022-09-09T17:38:27;18.90;99.90
10492;DHT22;5293;51.464;-2.566;2022-09-09T17:41:17;18.90;99.90
10492;DHT22;5293;51.464;-2.566;2022-09-09T17:43:44;18.80;99.90
10492;DHT22;5293;51.464;-2.566;2022-09-09T17:46:11;18.80;99.90
10492;DHT22;5293;51.464;-2.566;2022-09-09T17:48:38;18.80;99.90
10492;DHT22;5293;51.464;-2.566;2022-09-09T17:51:08;18.80;99.90
10492;DHT22;5293;51.464;-2.566;2022-09-09T17:53:38;18.80;99.90
10492;DHT22;5293;51.464;-2.566;2022-09-09T17:56:06;18.80;99.90
10492;DHT22;5293;51.464;-2.566;2022-09-09T17:58:33;18.80;99.90
10492;DHT22;5293;51.464;-2.566;2022-09-09T18:01:04;18.90;99.90
10492;DHT22;5293;51.464;-2.566;2022-09-09T18:03:38;18.90;99.90
10492;DHT22;5293;51.464;-2.566;2022-09-09T18:06:06;18.90;99.90